createdAt,value
2022-11-30T00:02:03.039Z,19.48
2022-11-30T00:04:31.626Z,17.92
2022-11-30T00:07:00.049Z,19.95
2022-11-30T00:09:27.905Z,19.48
2022-11-30T00:11:57.524Z,20.27
2022-11-30T00:14:25.982Z,20.92
2022-11-30T00:16:54.322Z,19.85
2022-11-30T00:19:22.575Z,18.30
2022-11-30T00:21:50.648Z,18.27
2022-11-30T00:24:18.574Z,19.95
2022-11-30T00:26:47.064Z,20.08
2022-11-30T00:29:16.760Z,21.27
2022-11-30T00:31:44.554Z,20.95
2022-11-30T00:34:12.901Z,22.70
2022-11-30T00:36:40.821Z,20.52
2022-11-30T00:39:09.117Z,21.50
2022-11-30T00:41:37.033Z,21.80
2022-11-30T00:44:05.529Z,22.42
2022-11-30T00:46:34.886Z,22.05
2022-11-30T00:49:03.293Z,19.60
2022-11-30T00:51:31.606Z,20.33
2022-11-30T00:53:59.428Z,21.55
2022-11-30T00:56:27.821Z,19.50
2022-11-30T00:58:56.194Z,20.77
2022-11-30T01:01:24.166Z,20.38
2022-11-30T01:03:53.645Z,19.98
2022-11-30T01:06:21.945Z,20.35
2022-11-30T01:08:49.911Z,20.20
2022-11-30T01:11:26.054Z,20.30
2022-11-30T01:13:55.180Z,20.70
2022-11-30T01:16:27.209Z,20.30
2022-11-30T01:18:58.043Z,19.45
2022-11-30T01:21:27.924Z,20.88
2022-11-30T01:23:56.084Z,18.88
2022-11-30T01:26:25.222Z,19.23
2022-11-30T01:28:54.804Z,19.63
2022-11-30T01:31:25.229Z,18.85
2022-11-30T01:33:54.767Z,20.98
2022-11-30T01:36:27.253Z,20.00
2022-11-30T01:38:57.780Z,19.77
2022-11-30T01:41:28.161Z,19.38
2022-11-30T01:43:58.700Z,20.95
2022-11-30T01:46:35.937Z,19.77
2022-11-30T01:49:16.216Z,20.58
2022-11-30T01:51:48.116Z,20.23
2022-11-30T01:54:21.550Z,20.23
2022-11-30T01:56:54.109Z,19.02
2022-11-30T01:59:24.306Z,20.55
2022-11-30T02:01:53.260Z,19.92
2022-11-30T02:04:26.064Z,19.80
2022-11-30T02:06:58.250Z,19.88
2022-11-30T02:09:29.040Z,18.60
2022-11-30T02:11:58.490Z,20.27
2022-11-30T02:14:35.098Z,20.13
2022-11-30T02:17:12.839Z,18.65
2022-11-30T02:20:17.768Z,18.80
2022-11-30T02:23:04.852Z,19.42
2022-11-30T02:25:41.829Z,18.05
2022-11-30T02:28:26.692Z,18.30
2022-11-30T02:30:59.587Z,18.00
2022-11-30T02:33:31.581Z,18.27
2022-11-30T02:36:02.401Z,17.55
2022-11-30T02:38:31.410Z,18.55
2022-11-30T02:40:59.265Z,18.02
2022-11-30T02:43:31.657Z,19.10
2022-11-30T02:46:07.599Z,18.48
2022-11-30T02:48:45.078Z,19.25
2022-11-30T02:51:19.069Z,18.52
2022-11-30T02:53:48.656Z,20.15
2022-11-30T02:56:17.365Z,21.08
2022-11-30T02:58:45.213Z,20.95
2022-11-30T03:01:15.189Z,22.08
2022-11-30T03:03:43.588Z,20.23
2022-11-30T03:06:11.502Z,17.63
2022-11-30T03:08:39.890Z,19.55
2022-11-30T03:11:07.991Z,18.88
2022-11-30T03:13:36.129Z,18.33
2022-11-30T03:16:08.662Z,17.55
2022-11-30T03:18:39.234Z,21.17
2022-11-30T03:21:08.856Z,18.60
2022-11-30T03:23:37.087Z,17.90
2022-11-30T03:26:06.518Z,19.48
2022-11-30T03:28:34.790Z,20.08
2022-11-30T03:31:02.854Z,18.20
2022-11-30T03:33:31.176Z,19.15
2022-11-30T03:36:06.113Z,18.23
2022-11-30T03:38:35.261Z,20.00
2022-11-30T03:41:04.692Z,17.90
2022-11-30T03:43:32.736Z,19.60
2022-11-30T03:46:01.572Z,19.42
2022-11-30T03:48:29.996Z,19.65
2022-11-30T03:50:58.195Z,19.58
2022-11-30T03:53:28.350Z,19.88
2022-11-30T03:55:58.691Z,18.90
2022-11-30T03:58:27.051Z,17.58
2022-11-30T04:01:01.681Z,18.73
2022-11-30T04:03:30.936Z,17.13
2022-11-30T04:05:59.505Z,18.25
2022-11-30T04:08:30.848Z,18.30
2022-11-30T04:11:00.836Z,16.80
2022-11-30T04:13:30.078Z,19.15
2022-11-30T04:15:58.592Z,17.95
2022-11-30T04:18:29.084Z,18.70
2022-11-30T04:20:59.013Z,18.05
2022-11-30T04:23:32.501Z,20.80
2022-11-30T04:26:01.031Z,20.38
2022-11-30T04:28:29.221Z,19.30
2022-11-30T04:30:57.267Z,20.42
2022-11-30T04:33:25.726Z,21.50
2022-11-30T04:35:57.393Z,23.58
2022-11-30T04:38:26.357Z,27.40
2022-11-30T04:40:56.553Z,29.70
2022-11-30T04:43:24.876Z,29.92
2022-11-30T04:45:53.461Z,36.55
2022-11-30T04:48:22.065Z,36.90
2022-11-30T04:50:50.960Z,35.08
2022-11-30T04:53:19.300Z,33.55
2022-11-30T04:55:47.221Z,25.77
2022-11-30T04:58:16.468Z,27.42
2022-11-30T05:00:44.703Z,26.45
2022-11-30T05:03:12.969Z,26.27
2022-11-30T05:05:40.948Z,24.77
2022-11-30T05:08:09.298Z,26.17
2022-11-30T05:10:37.538Z,25.98
2022-11-30T05:13:05.477Z,24.35
2022-11-30T05:15:35.395Z,27.58
2022-11-30T05:18:03.987Z,26.42
2022-11-30T05:20:32.097Z,25.17
2022-11-30T05:23:00.302Z,23.42
2022-11-30T05:25:28.417Z,26.25
2022-11-30T05:27:56.311Z,25.58
2022-11-30T05:30:24.622Z,25.15
2022-11-30T05:32:55.721Z,26.38
2022-11-30T05:35:23.690Z,27.60
2022-11-30T05:37:52.128Z,28.92
2022-11-30T05:40:20.418Z,26.52
2022-11-30T05:42:48.267Z,24.63
2022-11-30T05:45:16.753Z,23.00
2022-11-30T05:47:45.011Z,24.35
2022-11-30T05:50:14.408Z,23.83
2022-11-30T05:52:42.776Z,26.83
2022-11-30T05:55:11.232Z,27.83
2022-11-30T05:57:40.222Z,24.00
2022-11-30T06:00:10.905Z,26.15
2022-11-30T06:02:39.352Z,26.77
2022-11-30T06:05:08.386Z,27.00
2022-11-30T06:07:38.243Z,26.55
2022-11-30T06:10:07.225Z,26.65
2022-11-30T06:12:35.371Z,27.70
2022-11-30T06:15:03.933Z,26.63
2022-11-30T06:17:32.290Z,25.60
2022-11-30T06:20:00.202Z,28.90
2022-11-30T06:22:28.433Z,27.55
2022-11-30T06:24:58.305Z,29.13
2022-11-30T06:27:26.240Z,27.83
2022-11-30T06:29:54.638Z,27.83
2022-11-30T06:32:23.075Z,27.77
2022-11-30T06:34:51.035Z,28.38
2022-11-30T06:37:19.364Z,27.25
2022-11-30T06:42:37.597Z,26.60
2022-11-30T06:45:07.100Z,25.45
2022-11-30T06:47:35.224Z,26.95
2022-11-30T06:50:03.616Z,27.70
2022-11-30T06:52:33.203Z,27.20
2022-11-30T06:55:01.062Z,26.15
2022-11-30T06:57:30.043Z,27.98
2022-11-30T06:59:59.962Z,30.67
2022-11-30T07:02:27.715Z,28.98
2022-11-30T07:04:58.234Z,31.08
2022-11-30T07:07:26.371Z,29.13
2022-11-30T07:09:56.802Z,30.33
2022-11-30T07:12:25.037Z,27.58
2022-11-30T07:14:56.720Z,28.17
2022-11-30T07:17:26.508Z,27.80
2022-11-30T07:19:54.260Z,30.40
2022-11-30T07:22:22.086Z,28.10
2022-11-30T07:25:07.383Z,28.75
2022-11-30T07:27:35.683Z,29.98
2022-11-30T07:30:03.336Z,27.40
2022-11-30T07:32:32.398Z,28.10
2022-11-30T07:35:00.269Z,28.95
2022-11-30T07:37:27.982Z,30.17
2022-11-30T07:39:56.278Z,31.98
2022-11-30T07:42:24.005Z,30.40
2022-11-30T07:44:58.193Z,32.58
2022-11-30T07:47:26.663Z,31.02
2022-11-30T07:49:56.033Z,33.15
2022-11-30T07:52:25.417Z,30.17
2022-11-30T07:54:53.071Z,29.70
2022-11-30T07:57:20.952Z,31.23
2022-11-30T07:59:49.246Z,32.45
2022-11-30T08:02:17.480Z,30.25
2022-11-30T08:04:45.803Z,32.97
2022-11-30T08:07:15.545Z,29.20
2022-11-30T08:09:45.019Z,30.20
2022-11-30T08:12:12.963Z,31.63
2022-11-30T08:15:11.154Z,31.25
2022-11-30T08:17:28.981Z,32.60
2022-11-30T08:19:56.796Z,33.90
2022-11-30T08:22:26.130Z,31.75
2022-11-30T08:24:54.334Z,32.65
2022-11-30T08:27:22.261Z,33.15
2022-11-30T08:29:50.431Z,31.90
2022-11-30T08:32:18.171Z,31.65
2022-11-30T08:34:46.653Z,31.35
2022-11-30T08:37:15.017Z,29.77
2022-11-30T08:39:44.207Z,30.98
2022-11-30T08:42:12.271Z,28.98
2022-11-30T08:44:39.909Z,30.42
2022-11-30T08:47:08.102Z,27.13
2022-11-30T08:49:35.853Z,29.38
2022-11-30T08:52:19.599Z,29.30
2022-11-30T08:54:49.491Z,27.92
2022-11-30T08:57:19.164Z,27.88
2022-11-30T08:59:47.278Z,29.25
2022-11-30T09:02:18.846Z,28.00
2022-11-30T09:04:51.068Z,28.75
2022-11-30T09:07:19.952Z,28.85
2022-11-30T09:09:49.758Z,27.95
2022-11-30T09:12:17.508Z,29.30
2022-11-30T09:14:50.803Z,32.08
2022-11-30T09:17:22.044Z,32.63
2022-11-30T09:19:50.529Z,32.50
2022-11-30T09:22:18.327Z,31.40
2022-11-30T09:24:46.374Z,29.10
2022-11-30T09:27:16.030Z,26.27
2022-11-30T09:29:43.864Z,29.05
2022-11-30T09:32:11.881Z,29.60
2022-11-30T09:34:39.644Z,28.85
2022-11-30T09:37:07.503Z,28.63
2022-11-30T09:39:35.276Z,28.33
2022-11-30T09:42:33.493Z,26.90
2022-11-30T09:45:07.760Z,26.65
2022-11-30T09:48:00.073Z,27.60
2022-11-30T09:50:32.994Z,26.42
2022-11-30T09:53:06.734Z,27.63
2022-11-30T09:55:40.383Z,27.42
2022-11-30T09:58:24.483Z,27.77
2022-11-30T10:00:52.370Z,26.95
2022-11-30T10:03:23.629Z,26.77
2022-11-30T10:05:58.029Z,27.77
2022-11-30T10:08:50.836Z,30.67
2022-11-30T10:11:33.808Z,29.15
2022-11-30T10:14:18.112Z,31.50
2022-11-30T10:16:58.376Z,27.02
2022-11-30T10:19:43.123Z,28.10
2022-11-30T10:22:22.199Z,27.25
2022-11-30T10:25:10.162Z,28.48
2022-11-30T10:27:50.122Z,27.38
2022-11-30T10:30:22.603Z,27.38
2022-11-30T10:32:54.431Z,29.25
2022-11-30T10:35:31.841Z,29.50
2022-11-30T10:38:04.555Z,28.90
2022-11-30T10:40:39.221Z,30.70
2022-11-30T10:43:18.804Z,29.85
2022-11-30T10:45:50.342Z,28.80
2022-11-30T10:48:25.801Z,29.25
2022-11-30T10:50:54.673Z,26.13
2022-11-30T10:53:23.325Z,27.02
2022-11-30T10:55:59.890Z,27.73
2022-11-30T10:58:32.920Z,28.08
2022-11-30T11:01:06.849Z,26.60
2022-11-30T11:03:35.600Z,27.38
2022-11-30T11:06:15.862Z,29.42
2022-11-30T11:08:46.827Z,27.90
2022-11-30T11:11:36.880Z,29.77
2022-11-30T11:14:16.088Z,27.88
2022-11-30T11:16:53.836Z,26.67
2022-11-30T11:19:34.847Z,31.10
2022-11-30T11:22:05.808Z,27.33
2022-11-30T11:24:35.762Z,29.80
2022-11-30T11:27:03.990Z,29.95
2022-11-30T11:29:34.958Z,29.27
2022-11-30T11:32:25.913Z,28.08
2022-11-30T11:34:54.129Z,30.05
2022-11-30T11:37:26.705Z,28.95
2022-11-30T11:40:04.040Z,29.17
2022-11-30T11:42:35.551Z,30.13
2022-11-30T11:45:08.101Z,29.00
2022-11-30T11:47:41.423Z,28.85
2022-11-30T11:51:04.836Z,31.33
2022-11-30T11:53:25.553Z,29.38
2022-11-30T11:55:58.818Z,28.92
2022-11-30T11:58:36.460Z,30.52
2022-11-30T12:01:38.745Z,31.00
2022-11-30T12:04:14.283Z,30.30
2022-11-30T12:06:46.161Z,31.00
2022-11-30T12:09:19.170Z,30.90
2022-11-30T12:11:50.301Z,31.08
2022-11-30T12:14:19.933Z,31.30
2022-11-30T12:17:05.783Z,31.13
2022-11-30T12:22:20.785Z,32.60
2022-11-30T12:25:00.126Z,32.45
2022-11-30T12:27:46.873Z,30.83
2022-11-30T12:30:23.580Z,31.25
2022-11-30T12:33:12.009Z,32.17
2022-11-30T12:35:49.824Z,31.38
2022-11-30T12:38:31.681Z,33.30
2022-11-30T12:41:08.568Z,32.72
2022-11-30T12:43:46.855Z,33.38
2022-11-30T12:46:24.796Z,32.28
2022-11-30T12:49:11.018Z,32.55
2022-11-30T12:51:47.953Z,32.00
2022-11-30T12:54:22.574Z,34.95
2022-11-30T12:56:56.489Z,33.72
2022-11-30T12:59:32.437Z,35.30
2022-11-30T13:02:17.299Z,31.95
2022-11-30T13:04:51.866Z,33.17
2022-11-30T13:07:29.087Z,34.60
2022-11-30T13:10:01.584Z,33.97
2022-11-30T13:12:36.286Z,31.63
2022-11-30T13:15:14.008Z,35.28
2022-11-30T13:17:44.331Z,34.50
2022-11-30T13:20:21.530Z,34.42
2022-11-30T13:22:56.948Z,34.03
2022-11-30T13:26:06.312Z,36.88
2022-11-30T13:28:32.837Z,36.20
2022-11-30T13:31:06.581Z,34.95
2022-11-30T13:33:48.705Z,39.15
2022-11-30T13:36:28.824Z,36.38
2022-11-30T13:39:19.987Z,35.63
2022-11-30T13:41:50.260Z,49.95
2022-11-30T13:44:27.132Z,34.90
2022-11-30T13:46:55.082Z,30.60
2022-11-30T13:49:24.730Z,29.35
2022-11-30T13:52:19.996Z,28.85
2022-11-30T13:54:45.146Z,26.45
2022-11-30T13:57:57.982Z,28.05
2022-11-30T14:00:49.751Z,25.30
2022-11-30T14:03:25.631Z,28.42
2022-11-30T14:05:54.872Z,27.73
2022-11-30T14:08:40.246Z,26.83
2022-11-30T14:11:42.037Z,24.35
2022-11-30T14:14:45.354Z,28.15
2022-11-30T14:17:20.632Z,29.88
2022-11-30T14:19:52.958Z,25.90
2022-11-30T14:22:21.221Z,25.17
2022-11-30T14:24:50.736Z,28.08
2022-11-30T14:27:22.143Z,28.88
2022-11-30T14:29:53.632Z,29.05
2022-11-30T14:32:36.238Z,28.73
2022-11-30T14:35:13.082Z,28.95
2022-11-30T14:38:01.515Z,29.25
2022-11-30T14:40:31.456Z,30.38
2022-11-30T14:43:01.617Z,32.13
2022-11-30T14:45:33.923Z,31.30
2022-11-30T14:48:13.943Z,32.42
2022-11-30T14:50:44.711Z,29.92
2022-11-30T14:53:27.329Z,30.05
2022-11-30T14:56:01.073Z,30.83
2022-11-30T14:58:37.477Z,30.80
2022-11-30T15:01:18.565Z,31.83
2022-11-30T15:03:50.870Z,32.60
2022-11-30T15:06:21.857Z,33.47
2022-11-30T15:08:53.132Z,30.17
2022-11-30T15:11:21.612Z,32.95
2022-11-30T15:13:52.552Z,33.90
2022-11-30T15:16:22.649Z,32.58
2022-11-30T15:18:53.472Z,32.50
2022-11-30T15:21:24.068Z,34.03
2022-11-30T15:23:53.279Z,33.67
2022-11-30T15:29:00.386Z,35.58
2022-11-30T15:31:33.928Z,36.63
2022-11-30T15:34:03.737Z,34.72
2022-11-30T15:36:36.349Z,35.08
2022-11-30T15:39:07.988Z,34.35
2022-11-30T15:41:37.628Z,33.85
2022-11-30T15:44:06.000Z,38.78
2022-11-30T15:46:39.797Z,45.22
2022-11-30T15:53:04.419Z,65.20
2022-11-30T15:55:52.743Z,48.55
2022-11-30T15:58:31.265Z,57.85
2022-11-30T16:01:10.655Z,41.90
2022-11-30T16:04:07.147Z,36.63
2022-11-30T16:06:52.897Z,34.35
2022-11-30T16:09:27.073Z,32.30
2022-11-30T16:11:58.760Z,34.00
2022-11-30T16:14:31.138Z,34.28
2022-11-30T16:17:04.161Z,35.45
2022-11-30T16:19:37.739Z,39.10
2022-11-30T16:22:10.761Z,40.25
2022-11-30T16:24:43.074Z,38.70
2022-11-30T16:27:37.545Z,38.45
2022-11-30T16:30:07.064Z,37.10
2022-11-30T16:32:35.174Z,41.42
2022-11-30T16:35:03.805Z,39.95
2022-11-30T16:37:34.647Z,42.13
2022-11-30T16:40:11.511Z,39.45
2022-11-30T16:42:39.381Z,37.00
2022-11-30T16:45:14.627Z,38.50
2022-11-30T16:47:43.952Z,36.88
2022-11-30T16:50:12.929Z,39.05
2022-11-30T16:52:41.689Z,38.22
2022-11-30T16:55:19.275Z,34.42
2022-11-30T16:57:48.520Z,40.55
2022-11-30T17:00:21.021Z,42.13
2022-11-30T17:02:56.931Z,46.20
2022-11-30T17:05:25.343Z,38.42
2022-11-30T17:07:53.251Z,45.33
2022-11-30T17:10:23.399Z,41.75
2022-11-30T17:12:51.768Z,41.33
2022-11-30T17:15:21.510Z,42.70
2022-11-30T17:17:49.936Z,42.90
2022-11-30T17:20:19.121Z,45.78
2022-11-30T17:22:49.347Z,43.20
2022-11-30T17:25:19.634Z,43.72
2022-11-30T17:27:50.813Z,43.72
2022-11-30T17:30:20.734Z,45.28
2022-11-30T17:32:48.882Z,44.92
2022-11-30T17:35:17.799Z,46.00
2022-11-30T17:37:46.989Z,44.38
2022-11-30T17:40:17.888Z,46.25
2022-11-30T17:42:47.179Z,48.28
2022-11-30T17:45:19.020Z,46.30
2022-11-30T17:47:47.093Z,45.53
2022-11-30T17:50:16.338Z,49.60
2022-11-30T17:52:44.394Z,55.70
2022-11-30T17:55:13.296Z,55.97
2022-11-30T17:57:41.988Z,54.50
2022-11-30T18:00:10.936Z,56.45
2022-11-30T18:02:40.735Z,52.05
2022-11-30T18:09:00.902Z,49.40
2022-11-30T18:11:32.140Z,52.20
2022-11-30T18:14:03.600Z,53.75
2022-11-30T18:16:35.507Z,53.95
2022-11-30T18:19:11.965Z,54.92
2022-11-30T18:21:41.931Z,53.72
2022-11-30T18:24:11.136Z,53.70
2022-11-30T18:26:40.589Z,55.25
2022-11-30T18:29:10.141Z,51.72
2022-11-30T18:31:38.909Z,57.25
2022-11-30T18:34:09.324Z,50.35
2022-11-30T18:36:37.699Z,52.38
2022-11-30T18:39:06.300Z,50.30
2022-11-30T18:41:35.065Z,51.08
2022-11-30T18:44:03.786Z,49.15
2022-11-30T18:46:32.887Z,50.35
2022-11-30T18:49:01.981Z,47.40
2022-11-30T18:51:32.585Z,48.83
2022-11-30T18:54:02.610Z,49.95
2022-11-30T18:56:32.861Z,55.03
2022-11-30T18:59:03.584Z,58.55
2022-11-30T19:01:32.928Z,56.45
2022-11-30T19:04:03.065Z,52.58
2022-11-30T19:06:35.317Z,56.00
2022-11-30T19:09:07.416Z,53.47
2022-11-30T19:11:35.950Z,50.13
2022-11-30T19:14:04.895Z,52.55
2022-11-30T19:16:37.389Z,48.60
2022-11-30T19:19:07.935Z,50.72
2022-11-30T19:21:37.364Z,49.50
2022-11-30T19:24:05.607Z,48.30
2022-11-30T19:26:33.512Z,48.00
2022-11-30T19:29:01.599Z,47.88
2022-11-30T19:31:29.655Z,44.60
2022-11-30T19:33:58.360Z,47.30
2022-11-30T19:36:30.033Z,48.17
2022-11-30T19:39:01.444Z,47.95
2022-11-30T19:41:30.082Z,47.45
2022-11-30T19:44:03.796Z,45.53
2022-11-30T19:46:34.655Z,46.67
2022-11-30T19:49:05.359Z,49.42
2022-11-30T19:51:33.465Z,47.40
2022-11-30T19:54:03.777Z,51.00
2022-11-30T19:56:34.734Z,48.92
2022-11-30T19:59:06.379Z,47.05
2022-11-30T20:01:35.442Z,44.40
2022-11-30T20:04:04.319Z,45.67
2022-11-30T20:06:34.068Z,44.80
2022-11-30T20:09:06.344Z,42.92
2022-11-30T20:11:35.428Z,42.38
2022-11-30T20:14:03.734Z,44.17
2022-11-30T20:16:32.082Z,44.58
2022-11-30T20:19:02.822Z,43.95
2022-11-30T20:21:33.099Z,44.72
2022-11-30T20:24:06.385Z,43.90
2022-11-30T20:26:36.239Z,41.72
2022-11-30T20:29:06.191Z,42.70
2022-11-30T20:31:37.466Z,42.75
2022-11-30T20:34:06.163Z,42.35
2022-11-30T20:36:34.336Z,40.70
2022-11-30T20:39:04.553Z,37.88
2022-11-30T20:41:32.641Z,36.28
2022-11-30T20:44:02.130Z,38.70
2022-11-30T20:46:32.307Z,37.15
2022-11-30T20:49:01.987Z,37.47
2022-11-30T20:51:33.269Z,37.80
2022-11-30T20:54:06.717Z,39.95
2022-11-30T20:56:37.512Z,40.53
2022-11-30T20:59:08.168Z,40.88
2022-11-30T21:01:36.840Z,37.78
2022-11-30T21:04:06.014Z,37.33
2022-11-30T21:06:36.839Z,35.97
2022-11-30T21:09:07.809Z,32.70
2022-11-30T21:11:35.725Z,32.30
2022-11-30T21:14:04.258Z,33.13
2022-11-30T21:16:32.371Z,32.55
2022-11-30T21:20:17.965Z,31.27
2022-11-30T21:29:42.820Z,31.97
2022-11-30T21:32:56.994Z,32.17
2022-11-30T21:35:27.746Z,29.80
2022-11-30T21:38:01.351Z,30.88
2022-11-30T21:40:35.961Z,28.47
2022-11-30T21:53:02.131Z,28.98
2022-11-30T21:58:53.232Z,29.10
2022-11-30T22:01:24.489Z,26.77
2022-11-30T22:07:56.352Z,29.55
2022-11-30T22:10:36.286Z,29.42
2022-11-30T22:16:13.505Z,29.48
2022-11-30T22:33:23.370Z,30.42
2022-11-30T22:36:11.089Z,28.80
